createdAt,value
2023-03-24T00:07:28.441Z,14.03
2023-03-24T00:14:46.165Z,13.98
2023-03-24T00:36:59.908Z,13.74
2023-03-24T00:40:04.219Z,13.67
2023-03-24T00:47:07.932Z,13.56
2023-03-24T00:55:30.187Z,13.46
2023-03-24T00:58:57.912Z,13.42
2023-03-24T01:12:49.101Z,13.41
2023-03-24T01:20:49.181Z,13.37
2023-03-24T01:21:34.816Z,13.44
2023-03-24T01:25:31.785Z,13.44
2023-03-24T01:28:49.251Z,13.44
2023-03-24T01:32:00.292Z,13.44
2023-03-24T01:36:27.815Z,13.47
2023-03-24T01:50:08.182Z,13.49
2023-03-24T02:00:21.514Z,13.48
2023-03-24T02:11:16.909Z,13.41
2023-03-24T02:15:15.534Z,13.38
2023-03-24T02:20:08.297Z,13.45
2023-03-24T02:27:34.540Z,13.33
2023-03-24T02:34:38.949Z,13.27
2023-03-24T02:42:20.169Z,13.22
2023-03-24T02:57:54.539Z,13.14
2023-03-24T03:02:32.466Z,13.12
2023-03-24T03:06:11.298Z,13.10
2023-03-24T03:12:51.304Z,12.98
2023-03-24T03:16:12.819Z,12.92
2023-03-24T03:19:50.519Z,12.86
2023-03-24T03:27:37.941Z,12.71
2023-03-24T03:34:52.372Z,12.60
2023-03-24T03:42:08.280Z,12.51
2023-03-24T03:45:03.499Z,12.45
2023-03-24T04:00:26.244Z,12.24
2023-03-24T04:03:37.854Z,12.22
2023-03-24T04:06:48.086Z,12.19
2023-03-24T04:10:47.143Z,12.17
2023-03-24T04:14:25.530Z,12.15
2023-03-24T04:18:39.216Z,12.14
2023-03-24T04:25:40.570Z,12.16
2023-03-24T04:28:56.546Z,12.17
2023-03-24T04:39:35.863Z,12.23
2023-03-24T05:55:28.280Z,13.23
2023-03-24T06:01:29.728Z,13.25
2023-03-24T06:03:56.234Z,13.24
2023-03-24T06:06:23.246Z,13.27
2023-03-24T06:08:54.088Z,13.31
2023-03-24T06:11:20.758Z,13.39
2023-03-24T06:13:47.327Z,13.47
2023-03-24T06:16:13.998Z,13.58
2023-03-24T06:18:42.056Z,13.70
2023-03-24T06:21:09.019Z,13.82
2023-03-24T06:23:36.034Z,13.93
2023-03-24T06:26:09.226Z,14.01
2023-03-24T06:28:35.735Z,14.05
2023-03-24T06:31:04.490Z,14.07
2023-03-24T06:33:32.265Z,14.07
2023-03-24T06:36:01.212Z,14.08
2023-03-24T06:38:27.863Z,14.10
2023-03-24T06:41:00.131Z,14.17
2023-03-24T06:43:26.766Z,14.27
2023-03-24T06:45:53.331Z,14.38
2023-03-24T06:48:20.257Z,14.48
2023-03-24T06:50:47.477Z,14.59
2023-03-24T06:53:14.104Z,14.70
2023-03-24T06:55:41.041Z,14.79
2023-03-24T06:58:07.607Z,14.89
2023-03-24T07:00:34.272Z,14.95
2023-03-24T07:03:01.998Z,15.01
2023-03-24T07:05:28.969Z,15.06
2023-03-24T07:08:27.849Z,15.12
2023-03-24T07:10:43.192Z,15.20
2023-03-24T07:13:10.948Z,15.27
2023-03-24T07:15:38.014Z,15.33
2023-03-24T07:18:04.680Z,15.34
2023-03-24T07:20:31.439Z,15.35
2023-03-24T07:22:58.185Z,15.34
2023-03-24T07:25:25.284Z,15.31
2023-03-24T07:27:56.227Z,15.25
2023-03-24T07:30:29.919Z,15.21
2023-03-24T07:32:56.872Z,15.18
2023-03-24T07:35:23.377Z,15.12
2023-03-24T07:37:49.909Z,15.08
2023-03-24T07:40:17.263Z,15.04
2023-03-24T07:42:44.777Z,15.00
2023-03-24T07:45:12.415Z,14.99
2023-03-24T07:47:39.421Z,14.97
2023-03-24T07:50:09.600Z,14.96
2023-03-24T07:52:41.335Z,14.96
2023-03-24T07:55:13.080Z,14.96
2023-03-24T07:57:50.224Z,14.98
2023-03-24T08:00:17.411Z,15.00
2023-03-24T08:02:46.294Z,15.03
2023-03-24T08:05:14.211Z,15.06
2023-03-24T08:07:42.653Z,15.08
2023-03-24T08:10:14.342Z,15.09
2023-03-24T08:12:42.635Z,15.12
2023-03-24T08:15:09.485Z,15.10
2023-03-24T08:17:36.204Z,15.08
2023-03-24T08:20:07.930Z,15.06
2023-03-24T08:22:36.606Z,15.04
2023-03-24T08:25:03.387Z,15.01
2023-03-24T08:27:30.347Z,14.98
2023-03-24T08:29:56.836Z,14.96
2023-03-24T08:32:23.772Z,14.91
2023-03-24T08:34:50.868Z,14.89
2023-03-24T08:37:18.021Z,14.85
2023-03-24T08:39:44.714Z,14.86
2023-03-24T08:42:11.280Z,14.88
2023-03-24T08:44:37.827Z,14.84
2023-03-24T08:47:04.458Z,14.84
2023-03-24T08:49:31.625Z,14.82
2023-03-24T08:51:58.694Z,14.82
2023-03-24T08:54:25.643Z,14.86
2023-03-24T08:56:52.101Z,14.88
2023-03-24T08:59:18.625Z,14.92
2023-03-24T09:01:45.597Z,14.96
2023-03-24T09:04:12.876Z,14.96
2023-03-24T09:06:39.413Z,14.98
2023-03-24T09:09:06.958Z,14.99
2023-03-24T09:11:33.575Z,15.02
2023-03-24T09:14:00.799Z,15.03
2023-03-24T09:16:27.958Z,15.07
2023-03-24T09:18:54.688Z,15.12
2023-03-24T09:21:21.230Z,15.18
2023-03-24T09:23:47.693Z,15.24
2023-03-24T09:26:14.626Z,15.30
2023-03-24T09:28:41.633Z,15.38
2023-03-24T09:31:08.347Z,15.44
2023-03-24T09:33:35.189Z,15.51
2023-03-24T09:36:04.310Z,15.56
2023-03-24T09:38:32.975Z,15.63
2023-03-24T09:41:02.205Z,15.70
2023-03-24T09:43:45.600Z,15.76
2023-03-24T09:46:26.255Z,15.85
2023-03-24T09:48:57.057Z,15.98
2023-03-24T09:51:29.871Z,16.11
2023-03-24T09:53:59.389Z,16.22
2023-03-24T09:56:29.160Z,16.34
2023-03-24T09:59:28.754Z,16.45
2023-03-24T10:01:57.390Z,16.55
2023-03-24T10:04:27.029Z,16.64
2023-03-24T10:07:13.271Z,16.71
2023-03-24T10:09:40.289Z,16.81
2023-03-24T10:12:32.908Z,16.91
2023-03-24T10:15:49.966Z,17.06
2023-03-24T10:18:45.477Z,17.15
2023-03-24T10:21:22.233Z,17.25
2023-03-24T10:23:57.442Z,17.37
2023-03-24T10:26:57.981Z,17.43
2023-03-24T10:29:26.715Z,17.55
2023-03-24T10:32:10.225Z,17.66
2023-03-24T10:34:40.352Z,17.79
2023-03-24T10:37:06.945Z,17.87
2023-03-24T10:39:43.963Z,17.94
2023-03-24T10:42:21.225Z,18.02
2023-03-24T10:44:50.710Z,18.10
2023-03-24T10:47:24.043Z,18.16
2023-03-24T10:49:57.989Z,18.24
2023-03-24T10:52:25.574Z,18.31
2023-03-24T10:55:03.613Z,18.35
2023-03-24T10:57:30.499Z,18.37
2023-03-24T11:00:00.877Z,18.36
2023-03-24T11:02:32.712Z,18.35
2023-03-24T11:05:21.955Z,18.34
2023-03-24T11:07:51.284Z,18.33
2023-03-24T11:10:24.273Z,18.32
2023-03-24T11:12:54.545Z,18.33
2023-03-24T11:15:29.806Z,18.38
2023-03-24T11:18:06.591Z,18.45
2023-03-24T11:20:36.607Z,18.49
2023-03-24T11:23:14.293Z,18.58
2023-03-24T11:25:45.493Z,18.69
2023-03-24T11:28:20.330Z,18.78
2023-03-24T11:30:52.587Z,18.88
2023-03-24T11:33:34.852Z,18.95
2023-03-24T11:36:25.957Z,18.99
2023-03-24T11:39:25.613Z,19.04
2023-03-24T11:42:12.337Z,19.06
2023-03-24T11:44:39.357Z,19.01
2023-03-24T11:47:28.305Z,18.96
2023-03-24T11:49:58.198Z,18.86
2023-03-24T11:52:31.153Z,18.75
2023-03-24T11:54:57.641Z,18.66
2023-03-24T11:57:38.360Z,18.58
2023-03-24T12:00:24.826Z,18.49
2023-03-24T12:03:29.478Z,18.39
2023-03-24T12:06:32.353Z,18.30
2023-03-24T12:09:06.749Z,18.25
2023-03-24T12:11:45.698Z,18.22
2023-03-24T12:14:22.644Z,18.20
2023-03-24T12:17:07.800Z,18.18
2023-03-24T12:19:53.418Z,18.13
2023-03-24T12:22:33.228Z,18.10
2023-03-24T12:25:15.494Z,18.10
2023-03-24T12:27:56.567Z,18.12
2023-03-24T12:30:47.492Z,18.15
2023-03-24T12:33:14.858Z,18.16
2023-03-24T12:36:07.330Z,18.15
2023-03-24T12:38:50.239Z,18.12
2023-03-24T12:41:49.439Z,18.08
2023-03-24T12:44:37.589Z,18.04
2023-03-24T12:47:21.511Z,17.97
2023-03-24T12:50:15.639Z,17.91
2023-03-24T12:53:30.586Z,17.88
2023-03-24T12:56:10.211Z,17.82
2023-03-24T12:59:09.893Z,17.78
2023-03-24T13:01:43.128Z,17.75
2023-03-24T13:04:25.233Z,17.71
2023-03-24T13:06:59.428Z,17.68
2023-03-24T13:09:45.591Z,17.68
2023-03-24T13:12:14.745Z,17.71
2023-03-24T13:15:13.742Z,17.76
2023-03-24T13:17:55.049Z,17.84
2023-03-24T13:20:30.708Z,17.92
2023-03-24T13:23:09.935Z,17.95
2023-03-24T13:26:03.130Z,17.99
2023-03-24T13:28:54.140Z,18.02
2023-03-24T13:31:23.942Z,18.06
2023-03-24T13:33:53.286Z,18.07
2023-03-24T13:36:36.882Z,18.07
2023-03-24T13:39:13.659Z,18.09
2023-03-24T13:41:41.782Z,18.11
2023-03-24T13:44:19.459Z,18.15
2023-03-24T13:47:04.179Z,18.16
2023-03-24T13:49:32.136Z,18.18
2023-03-24T13:52:02.795Z,18.20
2023-03-24T13:54:30.726Z,18.17
2023-03-24T13:57:15.337Z,18.15
2023-03-24T13:59:59.156Z,18.15
2023-03-24T14:02:28.771Z,18.17
2023-03-24T14:05:07.934Z,18.17
2023-03-24T14:07:40.747Z,18.16
2023-03-24T14:10:13.425Z,18.15
2023-03-24T14:12:58.192Z,18.17
2023-03-24T14:15:44.431Z,18.15
2023-03-24T14:18:23.773Z,18.12
2023-03-24T14:20:56.660Z,18.11
2023-03-24T14:23:28.956Z,18.12
2023-03-24T14:25:56.336Z,18.11
2023-03-24T14:28:26.682Z,18.11
2023-03-24T14:31:12.362Z,18.11
2023-03-24T14:33:40.414Z,18.09
2023-03-24T14:36:11.520Z,18.05
2023-03-24T14:38:42.954Z,18.04
2023-03-24T14:41:16.009Z,18.02
2023-03-24T14:43:45.961Z,17.98
2023-03-24T14:46:21.798Z,17.94
2023-03-24T14:49:06.814Z,17.91
2023-03-24T14:51:42.784Z,17.89
2023-03-24T14:54:35.178Z,17.84
2023-03-24T14:57:04.207Z,17.78
2023-03-24T14:59:56.321Z,17.78
2023-03-24T15:02:29.147Z,17.74
2023-03-24T15:05:16.752Z,17.69
2023-03-24T15:07:46.010Z,17.61
2023-03-24T15:10:20.073Z,17.57
2023-03-24T15:12:48.712Z,17.54
2023-03-24T15:15:19.279Z,17.51
2023-03-24T15:17:46.477Z,17.47
2023-03-24T15:20:34.577Z,17.44
2023-03-24T15:23:16.627Z,17.38
2023-03-24T15:25:43.411Z,17.33
2023-03-24T15:28:17.802Z,17.26
2023-03-24T15:30:45.385Z,17.21
2023-03-24T15:33:13.467Z,17.16
2023-03-24T15:35:40.699Z,17.11
2023-03-24T15:38:18.537Z,17.08
2023-03-24T15:40:59.133Z,17.05
2023-03-24T15:43:28.791Z,17.00
2023-03-24T15:46:11.232Z,16.97
2023-03-24T15:48:39.377Z,16.94
2023-03-24T15:51:10.856Z,16.89
2023-03-24T15:53:55.249Z,16.86
2023-03-24T15:56:26.314Z,16.84
2023-03-24T15:58:56.322Z,16.81
2023-03-24T16:01:35.294Z,16.78
2023-03-24T16:04:05.455Z,16.73
2023-03-24T16:06:37.976Z,16.69
2023-03-24T16:09:13.387Z,16.65
2023-03-24T16:11:41.662Z,16.63
2023-03-24T16:14:25.901Z,16.59
2023-03-24T16:16:55.025Z,16.57
2023-03-24T16:19:21.773Z,16.54
2023-03-24T16:21:48.791Z,16.52
2023-03-24T16:24:16.551Z,16.47
2023-03-24T16:26:46.629Z,16.45
2023-03-24T16:29:13.583Z,16.42
2023-03-24T16:31:40.592Z,16.40
2023-03-24T16:34:07.707Z,16.38
2023-03-24T16:36:35.450Z,16.37
2023-03-24T16:39:02.607Z,16.35
2023-03-24T16:41:29.621Z,16.34
2023-03-24T16:43:56.360Z,16.33
2023-03-24T16:46:26.683Z,16.30
2023-03-24T16:48:53.926Z,16.30
2023-03-24T16:51:21.279Z,16.28
2023-03-24T16:53:48.605Z,16.27
2023-03-24T16:56:17.570Z,16.26
2023-03-24T16:58:47.320Z,16.24
2023-03-24T17:01:25.818Z,16.22
2023-03-24T17:03:58.507Z,16.20
2023-03-24T17:06:27.018Z,16.20
2023-03-24T17:08:53.801Z,16.18
2023-03-24T17:11:28.495Z,16.15
2023-03-24T17:14:01.286Z,16.16
2023-03-24T17:16:29.061Z,16.15
2023-03-24T17:18:56.128Z,16.15
2023-03-24T17:21:23.142Z,16.13
2023-03-24T17:23:54.248Z,16.11
2023-03-24T17:26:22.423Z,16.11
2023-03-24T17:28:50.371Z,16.11
2023-03-24T17:31:17.531Z,16.11
2023-03-24T17:33:44.288Z,16.10
2023-03-24T17:36:15.999Z,16.10
2023-03-24T17:38:43.426Z,16.07
2023-03-24T17:41:10.820Z,16.07
2023-03-24T17:43:38.226Z,16.05
2023-03-24T17:46:05.318Z,16.02
2023-03-24T17:48:32.217Z,15.99
2023-03-24T17:50:58.959Z,15.95
2023-03-24T17:53:26.095Z,15.92
2023-03-24T17:56:06.410Z,15.89
2023-03-24T17:58:34.807Z,15.86
2023-03-24T18:01:07.864Z,15.83
2023-03-24T18:03:37.448Z,15.81
2023-03-24T18:06:09.784Z,15.78
2023-03-24T18:08:36.888Z,15.76
2023-03-24T18:11:11.287Z,15.73
2023-03-24T18:13:38.322Z,15.71
2023-03-24T18:16:19.991Z,15.69
2023-03-24T18:18:49.765Z,15.68
2023-03-24T18:21:16.482Z,15.67
2023-03-24T18:23:43.315Z,15.67
2023-03-24T18:26:09.969Z,15.67
2023-03-24T18:28:38.237Z,15.67
2023-03-24T18:31:10.101Z,15.68
2023-03-24T18:33:37.357Z,15.68
2023-03-24T18:36:05.350Z,15.68
2023-03-24T18:38:32.102Z,15.67
2023-03-24T18:41:00.501Z,15.67
2023-03-24T18:43:29.594Z,15.69
2023-03-24T18:45:56.998Z,15.66
2023-03-24T18:48:24.127Z,15.65
2023-03-24T18:50:51.621Z,15.66
2023-03-24T18:53:18.987Z,15.67
2023-03-24T18:55:48.731Z,15.67
2023-03-24T18:58:17.208Z,15.67
2023-03-24T19:00:50.100Z,15.66
2023-03-24T19:03:18.232Z,15.63
2023-03-24T19:05:46.850Z,15.62
2023-03-24T19:08:14.283Z,15.64
2023-03-24T19:10:45.081Z,15.64
2023-03-24T19:13:13.491Z,15.62
2023-03-24T19:15:44.995Z,15.60
2023-03-24T19:18:12.769Z,15.59
2023-03-24T19:20:41.524Z,15.58
2023-03-24T19:23:08.437Z,15.58
2023-03-24T19:25:54.503Z,15.57
2023-03-24T19:28:29.219Z,15.56
2023-03-24T19:31:12.192Z,15.56
2023-03-24T19:33:38.797Z,15.52
2023-03-24T19:36:09.860Z,15.50
2023-03-24T19:38:37.855Z,15.48
2023-03-24T19:41:06.506Z,15.48
2023-03-24T19:43:34.109Z,15.47
2023-03-24T19:46:00.970Z,15.44
2023-03-24T19:48:27.648Z,15.41
2023-03-24T19:50:55.694Z,15.39
2023-03-24T19:53:24.005Z,15.35
2023-03-24T19:55:50.942Z,15.32
2023-03-24T19:58:17.916Z,15.30
2023-03-24T20:00:44.662Z,15.29
2023-03-24T20:03:11.676Z,15.29
2023-03-24T20:05:38.764Z,15.30
2023-03-24T20:08:05.969Z,15.32
2023-03-24T20:10:36.479Z,15.32
2023-03-24T20:13:03.118Z,15.30
2023-03-24T20:15:29.894Z,15.28
2023-03-24T20:17:56.493Z,15.26
2023-03-24T20:20:41.327Z,15.24
2023-03-24T20:23:08.996Z,15.23
2023-03-24T20:25:35.433Z,15.20
2023-03-24T20:28:02.738Z,15.18
2023-03-24T20:30:30.629Z,15.15
2023-03-24T20:32:57.794Z,15.13
2023-03-24T20:35:25.693Z,15.10
2023-03-24T20:37:52.495Z,15.07
2023-03-24T20:40:20.227Z,15.04
2023-03-24T20:42:46.870Z,15.03
2023-03-24T20:45:14.059Z,15.00
2023-03-24T20:47:41.907Z,14.98
2023-03-24T20:50:09.020Z,14.93
2023-03-24T20:52:35.733Z,14.89
2023-03-24T20:55:08.606Z,14.84
2023-03-24T20:57:36.060Z,14.80
2023-03-24T21:00:12.612Z,14.78
2023-03-24T21:02:42.728Z,14.77
2023-03-24T21:05:12.133Z,14.76
2023-03-24T21:07:42.955Z,14.74
2023-03-24T21:10:10.458Z,14.71
2023-03-24T21:12:37.283Z,14.68
2023-03-24T21:15:20.998Z,14.63
2023-03-24T21:17:51.104Z,14.58
2023-03-24T21:20:18.542Z,14.54
2023-03-24T21:22:55.188Z,14.48
2023-03-24T21:25:27.584Z,14.45
2023-03-24T21:27:55.692Z,14.41
2023-03-24T21:30:24.624Z,14.37
2023-03-24T21:32:54.018Z,14.34
2023-03-24T21:35:21.927Z,14.30
2023-03-24T21:37:49.052Z,14.26
2023-03-24T21:40:18.772Z,14.24
2023-03-24T21:42:48.955Z,14.21
2023-03-24T21:45:18.699Z,14.20
2023-03-24T21:47:46.874Z,14.18
2023-03-24T21:50:22.426Z,14.15
2023-03-24T21:52:50.112Z,14.11
2023-03-24T21:55:17.069Z,14.08
2023-03-24T21:57:44.975Z,14.06
2023-03-24T22:00:18.906Z,14.05
2023-03-24T22:02:49.185Z,14.05
2023-03-24T22:05:19.093Z,14.06
2023-03-24T22:07:46.392Z,14.04
2023-03-24T22:10:15.599Z,14.03
2023-03-24T22:12:43.340Z,14.01
2023-03-24T22:15:11.138Z,13.99
2023-03-24T22:17:38.246Z,13.97
2023-03-24T22:20:06.085Z,14.00
2023-03-24T22:22:33.441Z,13.99
2023-03-24T22:25:00.103Z,13.98
2023-03-24T22:27:26.677Z,13.98
2023-03-24T22:29:53.169Z,13.99
2023-03-24T22:32:20.294Z,13.98
2023-03-24T22:34:46.734Z,13.98
2023-03-24T22:37:13.175Z,13.99
2023-03-24T22:39:40.184Z,13.99
2023-03-24T22:42:06.643Z,13.97
2023-03-24T22:44:33.388Z,13.95
2023-03-24T22:47:02.156Z,13.94
2023-03-24T22:49:30.015Z,13.92
2023-03-24T22:51:56.939Z,13.90
2023-03-24T22:54:23.653Z,13.89
2023-03-24T22:56:50.310Z,13.88
2023-03-24T22:59:17.336Z,13.86
2023-03-24T23:01:44.196Z,13.82
2023-03-24T23:04:11.214Z,13.80
2023-03-24T23:06:37.904Z,13.77
2023-03-24T23:09:05.377Z,13.77
2023-03-24T23:11:32.651Z,13.75
2023-03-24T23:14:04.270Z,13.72
2023-03-24T23:16:33.487Z,13.71
2023-03-24T23:19:01.486Z,13.69
2023-03-24T23:21:28.311Z,13.66
2023-03-24T23:23:55.434Z,13.65
2023-03-24T23:26:26.316Z,13.64
2023-03-24T23:28:53.286Z,13.64
2023-03-24T23:31:24.054Z,13.64
2023-03-24T23:33:54.495Z,13.62
2023-03-24T23:36:21.094Z,13.59
2023-03-24T23:38:49.992Z,13.56
2023-03-24T23:41:18.637Z,13.54
2023-03-24T23:43:50.325Z,13.51
2023-03-24T23:46:20.245Z,13.50
2023-03-24T23:48:46.830Z,13.48
2023-03-24T23:51:13.442Z,13.47
2023-03-24T23:53:39.946Z,13.48
2023-03-24T23:56:10.470Z,13.48
2023-03-24T23:58:39.397Z,13.47
